Afric Star — A8KJ8 — position and weather

sailwx.info

Track history (hours):
 
Tides and Currents Weather Stations Pressure Air Temp Water Temp Dewpoint Dewpoint Depression Visibility Wind Speed Wind Dir Waves Ship Positions

Afric Star

Last reported at 2015-Sep-01 19:33 UTC. Time now 2015-Sep-02 06:33 UTC.
Position N 31°22' E 123°25'.

Length 158 m; draft 7 m.

Type: Cargo ship. MMSI: 636013069.

Date/timePositionNaut miles runAvg speedWind from/ knotsBaromVisibWave heightAir tempDewpointWater temp
2015-Sep-01 19:33N 31°22' E 123°25'1817.4
2015-Sep-01 18:32N 31°13' E 123°07'1716.8
2015-Sep-01 17:33N 31°05' E 122°50'1615.6
2015-Sep-01 16:32N 31°06' E 122°31'9 9.5
2015-Sep-01 15:33N 31°05' E 122°21'10 9.5
2015-Sep-01 14:33N 31°10' E 122°11'1212.3
2015-Sep-01 13:33N 31°15' E 121°58'1413.6
2015-Sep-01 12:33N 31°19' E 121°43'1111.4
2015-Sep-01 11:33N 31°25' E 121°31'8 7.9
2015-Sep-01 10:33N 31°30' E 121°24'1111.1
2015-Sep-01 09:33N 31°38' E 121°15'1212.0
2015-Sep-01 08:33N 31°46' E 121°04'11 9.9
2015-Sep-01 07:25N 31°52' E 120°53'1011.4
2015-Sep-01 06:33N 32°01' E 120°47'1312.9
2015-Sep-01 05:33N 32°04' E 120°32'1110.7
2015-Sep-01 04:30N 31°59' E 120°20'  
Track history (hours):
 
Tides and Currents Weather Stations Pressure Air Temp Water Temp Dewpoint Dewpoint Depression Visibility Wind Speed Wind Dir Waves Ship Positions

Afric Star

Last reported at 2015-Sep-01 19:33 UTC. Time now 2015-Sep-02 06:33 UTC.
Position N 31°22' E 123°25'.

Length 158 m; draft 7 m.

Type: Cargo ship. MMSI: 636013069.

Date/timePositionNaut miles runAvg speedWind from/ knotsBaromVisibWave heightAir tempDewpointWater temp
2015-Sep-01 19:33N 31°22' E 123°25'1817.4
2015-Sep-01 18:32N 31°13' E 123°07'1716.8
2015-Sep-01 17:33N 31°05' E 122°50'1615.6
2015-Sep-01 16:32N 31°06' E 122°31'9 9.5
2015-Sep-01 15:33N 31°05' E 122°21'10 9.5
2015-Sep-01 14:33N 31°10' E 122°11'1212.3
2015-Sep-01 13:33N 31°15' E 121°58'1413.6
2015-Sep-01 12:33N 31°19' E 121°43'1111.4
2015-Sep-01 11:33N 31°25' E 121°31'8 7.9
2015-Sep-01 10:33N 31°30' E 121°24'1111.1
2015-Sep-01 09:33N 31°38' E 121°15'1212.0
2015-Sep-01 08:33N 31°46' E 121°04'11 9.9
2015-Sep-01 07:25N 31°52' E 120°53'1011.4
2015-Sep-01 06:33N 32°01' E 120°47'1312.9
2015-Sep-01 05:33N 32°04' E 120°32'1110.7
2015-Sep-01 04:30N 31°59' E 120°20'  

Dump ship's entire track history